Time;durP1;ratioP1;P1;durP2;ratioP2;P2;SDS_P1;SDS_P2;PMS_P1;PMS_P2;Temp;Humidity;BMP_temperature;BMP_pressure;BME280_temperature;BME280_humidity;BME280_pressure;Samples;Min_cycle;Max_cycle;Signal;HPM_P1;HPM_P2
2023/09/24 00:01:15;;;;;;;3.60;1.13;;;7.60;99.90;;;;;;5026420;28;20028;-77
2023/09/24 00:03:41;;;;;;;0.80;0.80;;;7.60;99.90;;;;;;5044665;28;20053;-77
2023/09/24 00:06:09;;;;;;;0.60;0.60;;;7.60;99.90;;;;;;5043999;28;20022;-77
2023/09/24 00:08:35;;;;;;;0.68;0.68;;;7.60;99.90;;;;;;5042882;28;20088;-77
2023/09/24 00:11:02;;;;;;;1.58;0.93;;;7.60;99.90;;;;;;5043778;28;20037;-77
2023/09/24 00:13:28;;;;;;;0.82;0.73;;;7.60;99.90;;;;;;5044033;28;20021;-77
2023/09/24 00:15:54;;;;;;;0.90;0.90;;;7.70;99.90;;;;;;5043145;28;20089;-77
2023/09/24 00:18:20;;;;;;;1.75;1.15;;;7.70;99.90;;;;;;5043766;28;20021;-77
2023/09/24 00:20:46;;;;;;;9.07;0.80;;;7.60;99.90;;;;;;5042348;28;20320;-76
2023/09/24 00:23:14;;;;;;;2.35;0.95;;;7.60;99.90;;;;;;5025704;28;20021;-77
2023/09/24 00:25:40;;;;;;;0.77;0.47;;;7.50;99.90;;;;;;5044230;28;20237;-76
2023/09/24 00:28:07;;;;;;;0.80;0.80;;;7.40;99.90;;;;;;5025925;28;20317;-76
2023/09/24 00:30:34;;;;;;;1.17;0.60;;;7.30;99.90;;;;;;5042107;28;20312;-76
2023/09/24 00:33:00;;;;;;;1.67;0.60;;;7.30;99.90;;;;;;5042963;28;20013;-77
2023/09/24 00:35:26;;;;;;;1.15;0.75;;;7.30;99.90;;;;;;5043502;28;20084;-76
2023/09/24 00:37:52;;;;;;;0.93;0.93;;;7.30;99.90;;;;;;5043480;28;20359;-77
2023/09/24 00:40:19;;;;;;;0.45;0.45;;;7.30;99.90;;;;;;5043065;28;20021;-77
2023/09/24 00:42:45;;;;;;;0.60;0.60;;;7.30;99.90;;;;;;5025484;28;20021;-77
2023/09/24 00:45:12;;;;;;;0.75;0.75;;;7.20;99.90;;;;;;5037445;28;20032;-76
2023/09/24 00:47:42;;;;;;;1.02;0.73;;;7.20;99.90;;;;;;5024946;28;20072;-77
2023/09/24 00:50:09;;;;;;;4.78;1.13;;;7.10;99.90;;;;;;5021272;28;20092;-77
2023/09/24 00:52:36;;;;;;;1.33;0.75;;;7.00;99.90;;;;;;5025154;28;20021;-77
2023/09/24 00:55:05;;;;;;;2.65;1.20;;;7.10;99.90;;;;;;5042639;28;20086;-77
2023/09/24 00:57:32;;;;;;;2.35;0.30;;;7.10;99.90;;;;;;5024883;28;20092;-77
2023/09/24 00:59:59;;;;;;;0.60;0.60;;;7.10;99.90;;;;;;5038306;28;20017;-77
2023/09/24 01:02:25;;;;;;;1.10;1.00;;;7.10;99.90;;;;;;5038841;28;20051;-77
2023/09/24 01:04:53;;;;;;;3.05;0.93;;;7.00;99.90;;;;;;5037472;28;20418;-77
2023/09/24 01:07:22;;;;;;;0.52;0.52;;;7.10;99.90;;;;;;5033788;28;20056;-76
2023/09/24 01:09:48;;;;;;;0.80;0.80;;;7.10;99.90;;;;;;5014030;28;20030;-77
2023/09/24 01:12:26;;;;;;;0.80;0.80;;;7.20;99.90;;;;;;5020369;28;20393;-76
2023/09/24 01:14:57;;;;;;;0.88;0.50;;;7.10;99.90;;;;;;5040708;28;20065;-76
2023/09/24 01:17:24;;;;;;;0.40;0.40;;;7.10;99.90;;;;;;5041470;28;20021;-76
2023/09/24 01:19:53;;;;;;;0.75;0.75;;;7.10;99.90;;;;;;5041953;28;20281;-76
2023/09/24 01:22:18;;;;;;;0.35;0.35;;;7.10;99.90;;;;;;5042654;28;20194;-77
2023/09/24 01:24:44;;;;;;;0.50;0.50;;;7.00;99.90;;;;;;5043693;28;20083;-76
2023/09/24 01:27:09;;;;;;;0.85;0.73;;;7.00;99.90;;;;;;5043992;28;20076;-76
2023/09/24 01:29:36;;;;;;;0.50;0.50;;;6.80;99.90;;;;;;5042949;28;20085;-76
2023/09/24 01:32:04;;;;;;;0.30;0.30;;;6.90;99.90;;;;;;5025086;28;20025;-77
2023/09/24 01:34:29;;;;;;;4.43;1.02;;;6.80;99.90;;;;;;5025089;28;20044;-77
2023/09/24 01:36:55;;;;;;;0.63;0.63;;;6.80;99.90;;;;;;5036378;28;20462;-76
2023/09/24 01:39:26;;;;;;;1.33;0.75;;;6.80;99.90;;;;;;5036536;28;20040;-76
2023/09/24 01:41:52;;;;;;;0.55;0.55;;;6.80;99.90;;;;;;5040082;28;20301;-76
2023/09/24 01:44:21;;;;;;;1.60;0.50;;;6.70;99.90;;;;;;5042979;28;20037;-77
2023/09/24 01:46:47;;;;;;;0.77;0.57;;;6.60;99.90;;;;;;5042183;28;20243;-77
2023/09/24 01:49:13;;;;;;;1.08;0.50;;;6.60;99.90;;;;;;5037841;28;20041;-76
2023/09/24 01:51:39;;;;;;;1.90;0.85;;;6.60;99.90;;;;;;5022988;28;20053;-77
2023/09/24 01:54:05;;;;;;;2.75;0.98;;;6.60;99.90;;;;;;5022887;28;20030;-77
2023/09/24 01:56:30;;;;;;;0.50;0.50;;;6.50;99.90;;;;;;5022940;28;20170;-77
2023/09/24 01:58:56;;;;;;;1.02;0.75;;;6.50;99.90;;;;;;5022536;28;20026;-77
2023/09/24 02:01:22;;;;;;;3.85;2.03;;;6.50;99.90;;;;;;5022828;28;20029;-77
2023/09/24 02:03:48;;;;;;;0.80;0.80;;;6.50;99.90;;;;;;5004718;28;20026;-77
2023/09/24 02:06:18;;;;;;;1.05;0.52;;;6.60;99.90;;;;;;5022486;28;20313;-77
2023/09/24 02:08:44;;;;;;;0.73;0.55;;;6.60;99.90;;;;;;5022608;28;20021;-77
2023/09/24 02:11:10;;;;;;;1.70;0.63;;;6.60;99.90;;;;;;5023252;28;20048;-77
2023/09/24 02:13:36;;;;;;;2.92;0.52;;;6.50;99.90;;;;;;5022493;28;20205;-77
2023/09/24 02:16:05;;;;;;;1.48;1.05;;;6.60;99.90;;;;;;5022767;28;20041;-76
2023/09/24 02:18:32;;;;;;;1.75;0.95;;;6.50;99.90;;;;;;5021573;28;20024;-76
2023/09/24 02:21:01;;;;;;;7.30;1.75;;;6.40;99.90;;;;;;5022209;28;20018;-77
2023/09/24 02:23:26;;;;;;;2.42;0.60;;;6.50;99.90;;;;;;5021000;28;20028;-76
2023/09/24 02:25:52;;;;;;;1.42;0.80;;;6.40;99.90;;;;;;5002152;28;20389;-77
2023/09/24 02:28:18;;;;;;;0.82;0.82;;;6.40;99.90;;;;;;5015263;28;20029;-76
2023/09/24 02:30:45;;;;;;;0.55;0.55;;;6.40;99.90;;;;;;5015851;28;20097;-77
2023/09/24 02:33:10;;;;;;;1.60;0.65;;;6.30;99.90;;;;;;4999983;28;20053;-77
2023/09/24 02:35:36;;;;;;;0.63;0.63;;;6.30;99.90;;;;;;5017483;28;20026;-77
2023/09/24 02:38:04;;;;;;;1.90;0.70;;;6.30;99.90;;;;;;5023042;28;20033;-77
2023/09/24 02:40:30;;;;;;;0.60;0.55;;;6.40;99.90;;;;;;5008038;28;20105;-77
2023/09/24 02:42:58;;;;;;;0.50;0.50;;;6.40;99.90;;;;;;5025610;28;20325;-77
2023/09/24 02:45:26;;;;;;;0.60;0.60;;;6.40;99.90;;;;;;5026019;28;20313;-76
2023/09/24 02:47:52;;;;;;;1.35;0.80;;;6.30;99.90;;;;;;5020770;28;20029;-77
2023/09/24 02:50:22;;;;;;;1.33;0.80;;;6.50;99.90;;;;;;5010038;28;20056;-77
2023/09/24 02:52:49;;;;;;;0.50;0.50;;;6.20;99.90;;;;;;5018423;28;20029;-77
2023/09/24 02:55:15;;;;;;;1.00;1.00;;;6.10;99.90;;;;;;5036257;28;20051;-77
2023/09/24 02:57:43;;;;;;;0.70;0.70;;;6.00;99.90;;;;;;5034827;28;20056;-77
2023/09/24 03:00:15;;;;;;;0.68;0.68;;;5.90;99.90;;;;;;5043209;28;20029;-77
2023/09/24 03:02:40;;;;;;;0.85;0.60;;;5.90;99.90;;;;;;5027970;28;20021;-77
2023/09/24 03:05:11;;;;;;;0.70;0.63;;;5.80;99.90;;;;;;5044748;28;20373;-77
2023/09/24 03:07:40;;;;;;;0.80;0.60;;;5.80;99.90;;;;;;5027523;28;20388;-77
2023/09/24 03:10:06;;;;;;;0.93;0.60;;;5.90;99.90;;;;;;5027834;28;20040;-77
2023/09/24 03:12:32;;;;;;;0.32;0.32;;;5.90;99.90;;;;;;5044213;28;20059;-77
2023/09/24 03:14:59;;;;;;;0.98;0.75;;;5.90;99.90;;;;;;5022721;28;20529;-77
2023/09/24 03:17:24;;;;;;;0.75;0.40;;;5.70;99.90;;;;;;5018036;28;20022;-77
2023/09/24 03:19:50;;;;;;;1.67;0.85;;;5.70;99.90;;;;;;5020969;28;20090;-78
2023/09/24 03:22:17;;;;;;;0.35;0.35;;;6.10;99.90;;;;;;5022430;28;20021;-77
2023/09/24 03:24:43;;;;;;;3.75;0.45;;;5.70;99.90;;;;;;5034136;28;20114;-77
2023/09/24 03:27:09;;;;;;;0.77;0.55;;;5.80;99.90;;;;;;5034421;28;20056;-76
2023/09/24 03:29:34;;;;;;;0.57;0.57;;;5.80;99.90;;;;;;5043774;28;20021;-76
2023/09/24 03:32:00;;;;;;;0.60;0.60;;;5.80;99.90;;;;;;5041273;28;20103;-77
2023/09/24 03:34:26;;;;;;;4.43;0.50;;;5.90;99.90;;;;;;5035548;28;20101;-77
2023/09/24 03:36:51;;;;;;;0.75;0.60;;;5.80;99.90;;;;;;5040033;28;20026;-77
2023/09/24 03:39:17;;;;;;;2.72;0.60;;;5.80;99.90;;;;;;5042939;28;20025;-76
2023/09/24 03:41:43;;;;;;;0.60;0.57;;;5.80;99.90;;;;;;5035471;28;20029;-77
2023/09/24 03:44:09;;;;;;;2.78;1.30;;;5.70;99.90;;;;;;5017226;28;20487;-76
2023/09/24 03:46:34;;;;;;;1.00;1.00;;;5.70;99.90;;;;;;5033797;28;20037;-77
2023/09/24 03:49:00;;;;;;;2.20;0.75;;;5.60;99.90;;;;;;5033962;28;20032;-77
2023/09/24 03:51:26;;;;;;;0.50;0.50;;;5.60;99.90;;;;;;5024778;28;20069;-76
2023/09/24 03:53:51;;;;;;;0.43;0.43;;;5.60;99.90;;;;;;5024262;28;20041;-76
2023/09/24 03:56:17;;;;;;;0.70;0.60;;;5.50;99.90;;;;;;5022527;28;20068;-76
2023/09/24 03:58:43;;;;;;;0.50;0.50;;;5.50;99.90;;;;;;5023213;28;20217;-76
2023/09/24 04:01:10;;;;;;;1.17;0.60;;;5.50;99.90;;;;;;5006294;28;20029;-76
2023/09/24 04:03:37;;;;;;;0.63;0.63;;;5.50;99.90;;;;;;5003281;28;20070;-78
2023/09/24 04:06:12;;;;;;;3.55;0.60;;;5.50;99.90;;;;;;4997476;28;20052;-78
2023/09/24 04:08:38;;;;;;;1.85;0.95;;;5.40;99.90;;;;;;5019677;28;20032;-77
2023/09/24 04:11:12;;;;;;;0.73;0.70;;;5.50;99.90;;;;;;5017775;28;20038;-77
2023/09/24 04:13:38;;;;;;;0.65;0.65;;;5.70;99.90;;;;;;5023476;28;20026;-77
2023/09/24 04:16:12;;;;;;;0.55;0.55;;;5.50;99.90;;;;;;5023183;28;20092;-77
2023/09/24 04:18:39;;;;;;;0.60;0.60;;;5.40;99.90;;;;;;5004282;28;20026;-77
2023/09/24 04:21:19;;;;;;;1.63;1.23;;;5.40;99.90;;;;;;5003780;28;20021;-77
2023/09/24 04:23:46;;;;;;;1.40;1.30;;;5.40;99.90;;;;;;5017434;28;20045;-77
2023/09/24 04:26:22;;;;;;;1.92;0.80;;;5.40;99.90;;;;;;5002491;28;20018;-77
2023/09/24 04:28:49;;;;;;;0.77;0.50;;;5.40;99.90;;;;;;5021117;28;20022;-77
2023/09/24 04:31:16;;;;;;;0.68;0.60;;;5.40;99.90;;;;;;5003615;28;20109;-77
2023/09/24 04:33:42;;;;;;;0.60;0.60;;;5.50;99.90;;;;;;5005971;28;20032;-77
2023/09/24 04:36:09;;;;;;;1.77;0.50;;;5.50;99.90;;;;;;5005519;28;20045;-77
2023/09/24 04:38:36;;;;;;;0.90;0.60;;;5.50;99.90;;;;;;5006027;28;20074;-77
2023/09/24 04:41:02;;;;;;;1.52;1.15;;;5.50;99.90;;;;;;5001098;28;20030;-77
2023/09/24 04:43:28;;;;;;;0.77;0.50;;;5.30;99.90;;;;;;4996589;28;20026;-76
2023/09/24 04:45:53;;;;;;;0.47;0.47;;;5.40;99.90;;;;;;4999020;28;20053;-77
2023/09/24 04:48:19;;;;;;;0.70;0.70;;;5.30;99.90;;;;;;5023625;28;20093;-77
2023/09/24 04:50:44;;;;;;;2.15;0.90;;;5.30;99.90;;;;;;5038939;28;20384;-77
2023/09/24 04:53:10;;;;;;;5.10;0.60;;;5.20;99.90;;;;;;5037033;28;20116;-77
2023/09/24 04:55:36;;;;;;;2.30;1.10;;;5.20;99.90;;;;;;5033516;28;20061;-76
2023/09/24 04:58:02;;;;;;;1.85;0.85;;;5.20;99.90;;;;;;5041588;28;20021;-76
2023/09/24 05:00:28;;;;;;;0.60;0.60;;;5.10;99.90;;;;;;5021613;28;20044;-77
2023/09/24 05:02:54;;;;;;;0.50;0.50;;;5.20;99.90;;;;;;5041443;28;20305;-77
2023/09/24 05:05:19;;;;;;;0.82;0.80;;;5.20;99.90;;;;;;5042308;28;20025;-76
2023/09/24 05:07:45;;;;;;;0.77;0.77;;;5.20;99.90;;;;;;5034853;28;20021;-77
2023/09/24 05:10:11;;;;;;;0.75;0.60;;;5.20;99.90;;;;;;5015889;28;20049;-76
2023/09/24 05:12:37;;;;;;;0.73;0.60;;;5.20;99.90;;;;;;5022062;28;20022;-78
2023/09/24 05:15:04;;;;;;;2.20;1.05;;;5.10;99.90;;;;;;5022325;28;20148;-77
2023/09/24 05:17:32;;;;;;;1.05;0.80;;;5.10;99.90;;;;;;5023353;28;20033;-76
2023/09/24 05:19:58;;;;;;;0.97;0.87;;;5.10;99.90;;;;;;5016443;28;20025;-77
2023/09/24 05:22:27;;;;;;;2.10;0.50;;;5.00;99.90;;;;;;5039966;28;20033;-77
2023/09/24 05:24:53;;;;;;;1.10;0.60;;;5.10;99.90;;;;;;5021198;28;20443;-76
2023/09/24 05:27:19;;;;;;;1.55;1.23;;;5.00;99.90;;;;;;5042719;28;20580;-77
2023/09/24 05:29:50;;;;;;;1.38;0.95;;;5.10;99.90;;;;;;5043257;28;20025;-77
2023/09/24 05:32:16;;;;;;;0.93;0.80;;;5.10;99.90;;;;;;5036028;28;20149;-77
2023/09/24 05:34:42;;;;;;;0.90;0.80;;;5.10;99.90;;;;;;5041987;28;20025;-77
2023/09/24 05:37:08;;;;;;;1.15;0.85;;;5.10;99.90;;;;;;5043149;28;20040;-77
2023/09/24 05:39:35;;;;;;;0.55;0.55;;;5.40;99.90;;;;;;5039581;28;20468;-77
2023/09/24 05:42:02;;;;;;;0.55;0.55;;;5.20;99.90;;;;;;5032145;28;20164;-78
2023/09/24 05:44:32;;;;;;;3.55;1.20;;;5.20;99.90;;;;;;5034058;28;20085;-78
2023/09/24 05:46:58;;;;;;;;;;;5.10;99.90;;;;;;5022287;28;20026;-79
2023/09/24 05:49:24;;;;;;;1.52;0.60;;;5.10;99.90;;;;;;5023627;28;19940;-78
2023/09/24 05:51:49;;;;;;;1.38;0.80;;;5.20;99.90;;;;;;5024800;28;20021;-78
2023/09/24 05:54:15;;;;;;;0.75;0.75;;;5.30;99.90;;;;;;5043659;28;20028;-77
2023/09/24 05:56:41;;;;;;;2.42;0.77;;;5.40;99.90;;;;;;5025711;28;20304;-78
2023/09/24 05:59:06;;;;;;;2.00;1.17;;;5.50;99.90;;;;;;5024964;28;20026;-78
2023/09/24 06:01:32;;;;;;;2.35;1.15;;;5.60;99.90;;;;;;5042319;28;20060;-76
2023/09/24 06:03:58;;;;;;;3.65;1.02;;;5.70;99.90;;;;;;5024223;28;20121;-79
2023/09/24 06:06:23;;;;;;;1.13;1.02;;;6.20;99.90;;;;;;5043322;28;20044;-77
2023/09/24 06:08:49;;;;;;;3.28;1.42;;;5.90;99.90;;;;;;5043049;28;20029;-78
2023/09/24 06:11:14;;;;;;;2.35;0.98;;;6.20;99.90;;;;;;5040742;28;20063;-78
2023/09/24 06:13:40;;;;;;;0.50;0.50;;;6.10;99.90;;;;;;5019946;28;20461;-78
2023/09/24 06:16:06;;;;;;;1.08;0.98;;;6.20;99.90;;;;;;5021009;28;20029;-77
2023/09/24 06:18:32;;;;;;;1.27;0.60;;;6.30;99.90;;;;;;5022606;28;20030;-78
2023/09/24 06:20:59;;;;;;;0.63;0.60;;;6.30;99.90;;;;;;5019820;28;20083;-78
2023/09/24 06:23:25;;;;;;;1.08;0.90;;;6.30;99.90;;;;;;5039373;28;20036;-79
2023/09/24 06:25:58;;;;;;;1.05;0.93;;;6.40;99.90;;;;;;5021021;28;20025;-77
2023/09/24 06:28:24;;;;;;;0.75;0.65;;;6.50;99.90;;;;;;5042329;28;20052;-77
2023/09/24 06:30:59;;;;;;;0.88;0.80;;;6.60;99.90;;;;;;5029082;28;20080;-77
2023/09/24 06:33:25;;;;;;;2.72;0.90;;;6.90;99.90;;;;;;5048582;28;20205;-79
2023/09/24 06:35:51;;;;;;;0.98;0.93;;;6.70;99.90;;;;;;5047986;28;20028;-76
2023/09/24 06:38:17;;;;;;;2.30;1.27;;;6.80;99.90;;;;;;5029115;28;20022;-79
2023/09/24 06:40:43;;;;;;;3.08;0.93;;;6.90;99.90;;;;;;5047501;28;20085;-78
2023/09/24 06:43:08;;;;;;;1.27;1.00;;;7.00;99.90;;;;;;5029703;28;20213;-77
2023/09/24 06:45:35;;;;;;;2.10;1.40;;;7.10;99.90;;;;;;5047689;28;20216;-76
2023/09/24 06:48:01;;;;;;;2.22;1.75;;;7.30;99.90;;;;;;5047153;28;20031;-77
2023/09/24 06:50:27;;;;;;;2.50;1.48;;;7.30;99.90;;;;;;5046427;28;20359;-77
2023/09/24 06:52:53;;;;;;;3.30;1.80;;;7.40;99.90;;;;;;5029658;28;20092;-78
2023/09/24 06:55:18;;;;;;;1.20;1.10;;;7.50;99.90;;;;;;5044910;28;20096;-79
2023/09/24 06:57:44;;;;;;;2.72;1.65;;;7.60;99.90;;;;;;5047229;28;20317;-78
2023/09/24 07:00:10;;;;;;;1.95;1.42;;;7.70;99.90;;;;;;5032360;28;20198;-78
2023/09/24 07:02:36;;;;;;;1.52;1.40;;;7.80;99.90;;;;;;5048426;28;20021;-79
2023/09/24 07:05:04;;;;;;;1.35;1.15;;;7.90;99.90;;;;;;5046610;28;20033;-79
2023/09/24 07:07:30;;;;;;;1.50;1.40;;;8.00;99.90;;;;;;5050219;28;20336;-78
2023/09/24 07:09:56;;;;;;;1.83;1.65;;;8.20;99.90;;;;;;5048053;28;20029;-79
2023/09/24 07:12:22;;;;;;;1.65;1.55;;;8.30;99.90;;;;;;5028310;28;20052;-79
2023/09/24 07:14:47;;;;;;;11.93;2.35;;;8.40;99.90;;;;;;5027325;28;20363;-77
2023/09/24 07:17:15;;;;;;;1.55;1.40;;;8.50;99.90;;;;;;5026404;28;20033;-78
2023/09/24 07:19:41;;;;;;;1.55;1.45;;;8.70;99.90;;;;;;5047285;28;20077;-77
2023/09/24 07:22:07;;;;;;;1.60;1.50;;;8.70;99.90;;;;;;5028279;28;20140;-78
2023/09/24 07:24:32;;;;;;;1.70;1.50;;;8.80;99.90;;;;;;5028978;28;20037;-78
2023/09/24 07:27:02;;;;;;;2.22;1.70;;;8.90;99.90;;;;;;5042043;28;20068;-77
2023/09/24 07:29:30;;;;;;;2.65;1.75;;;9.00;99.90;;;;;;5027798;28;20025;-77
2023/09/24 07:31:56;;;;;;;6.68;2.13;;;9.20;99.90;;;;;;5029178;28;20021;-79
2023/09/24 07:34:23;;;;;;;3.00;1.95;;;9.20;99.90;;;;;;5046544;28;20018;-78
2023/09/24 07:36:48;;;;;;;1.50;1.35;;;9.30;99.90;;;;;;5046630;28;20343;-77
2023/09/24 07:39:14;;;;;;;2.63;2.15;;;9.30;99.90;;;;;;5046092;28;20021;-77
2023/09/24 07:41:40;;;;;;;3.25;1.58;;;9.40;99.90;;;;;;5031212;28;20022;-77
2023/09/24 07:44:06;;;;;;;1.65;1.55;;;9.40;99.90;;;;;;5047786;28;20189;-77
2023/09/24 07:46:31;;;;;;;1.83;1.73;;;9.50;99.90;;;;;;5030204;28;20029;-78
2023/09/24 07:48:57;;;;;;;1.88;1.60;;;9.50;99.90;;;;;;5046024;28;20515;-79
2023/09/24 07:51:23;;;;;;;1.48;1.35;;;9.60;99.90;;;;;;5029754;28;20040;-80
2023/09/24 07:53:50;;;;;;;2.25;1.77;;;9.70;99.90;;;;;;5025043;28;20503;-78
2023/09/24 07:56:15;;;;;;;1.70;1.60;;;9.70;99.90;;;;;;5046163;28;20049;-80
2023/09/24 07:58:42;;;;;;;1.73;1.63;;;9.80;99.90;;;;;;5027782;28;20025;-80
2023/09/24 08:01:13;;;;;;;3.22;2.03;;;9.80;99.90;;;;;;5032651;28;20029;-80
2023/09/24 08:03:39;;;;;;;2.08;1.50;;;8.80;99.90;;;;;;5029908;28;20057;-79
2023/09/24 08:06:06;;;;;;;2.47;1.35;;;10.10;99.90;;;;;;5045881;28;20026;-79
2023/09/24 08:08:34;;;;;;;2.00;1.90;;;10.10;99.90;;;;;;5031056;28;20030;-80
2023/09/24 08:11:06;;;;;;;4.20;1.80;;;10.10;99.90;;;;;;5031423;28;20057;-80
2023/09/24 08:13:32;;;;;;;1.52;1.38;;;10.20;99.90;;;;;;5029428;28;20064;-77
2023/09/24 08:15:58;;;;;;;1.73;1.58;;;10.40;99.90;;;;;;5050144;28;20030;-78
2023/09/24 08:21:48;;;;;;;1.67;1.42;;;10.30;99.90;;;;;;5010487;28;20025;-79
2023/09/24 08:24:40;;;;;;;1.88;1.77;;;10.70;99.90;;;;;;4998321;28;20038;-79
2023/09/24 08:27:28;;;;;;;2.65;1.20;;;10.90;99.90;;;;;;5017359;28;20030;-81
2023/09/24 08:29:55;;;;;;;2.35;1.35;;;11.00;99.90;;;;;;5014743;28;20038;-81
2023/09/24 08:32:20;;;;;;;1.10;0.98;;;11.10;99.90;;;;;;4995949;28;20058;-81
2023/09/24 08:34:46;;;;;;;1.10;1.00;;;11.30;99.90;;;;;;4992395;28;20501;-78
2023/09/24 08:37:12;;;;;;;1.23;1.13;;;11.60;99.90;;;;;;4994781;28;20053;-79
2023/09/24 08:39:37;;;;;;;2.10;1.67;;;11.90;99.90;;;;;;4997286;28;20070;-80
2023/09/24 08:42:10;;;;;;;1.30;1.20;;;12.30;99.90;;;;;;5000308;28;20050;-80
2023/09/24 08:45:11;;;;;;;2.25;1.85;;;12.60;99.90;;;;;;4982453;28;20026;-78
2023/09/24 08:47:38;;;;;;;1.15;1.13;;;12.60;99.90;;;;;;4984165;28;20033;-79
2023/09/24 08:50:05;;;;;;;1.63;1.27;;;12.50;99.90;;;;;;5022470;28;20049;-82
2023/09/24 08:52:37;;;;;;;;;;;12.40;99.90;;;;;;5039792;28;20052;-81
2023/09/24 08:55:11;;;;;;;2.45;1.40;;;12.20;99.90;;;;;;5053976;28;20244;-80
2023/09/24 08:57:42;;;;;;;1.25;1.15;;;12.10;99.90;;;;;;5035567;28;20033;-80
2023/09/24 09:07:12;;;;;;;1.85;1.27;;;12.10;99.90;;;;;;5549589;22;20033;-81
2023/09/24 09:10:01;;;;;;;1.73;1.63;;;12.30;99.90;;;;;;5078606;28;20032;-82
2023/09/24 09:12:38;;;;;;;4.28;1.88;;;12.40;99.90;;;;;;5083947;28;20041;-79
2023/09/24 09:15:16;;;;;;;1.67;1.55;;;12.50;99.90;;;;;;5049475;28;20028;-79
2023/09/24 09:17:42;;;;;;;3.60;1.38;;;12.60;99.90;;;;;;5057402;28;20326;-77
2023/09/24 09:20:08;;;;;;;2.55;1.92;;;12.70;99.90;;;;;;5074594;28;20029;-77
2023/09/24 09:22:35;;;;;;;3.53;1.52;;;12.70;99.90;;;;;;5056202;28;20526;-77
2023/09/24 09:25:06;;;;;;;1.58;1.17;;;12.90;99.90;;;;;;5055907;28;20366;-78
2023/09/24 09:27:37;;;;;;;1.45;1.23;;;13.00;99.90;;;;;;5055911;28;20028;-77
2023/09/24 09:30:17;;;;;;;2.20;1.45;;;13.20;99.90;;;;;;5055741;28;20036;-78
2023/09/24 09:32:47;;;;;;;2.05;1.70;;;13.30;99.90;;;;;;5055667;28;20055;-77
2023/09/24 09:35:14;;;;;;;2.33;1.67;;;13.40;99.90;;;;;;5055972;28;20361;-77
2023/09/24 09:37:42;;;;;;;1.30;1.08;;;13.40;99.90;;;;;;5074114;28;20479;-78
2023/09/24 09:40:09;;;;;;;1.77;1.13;;;13.50;99.90;;;;;;5058029;28;20047;-78
2023/09/24 09:42:37;;;;;;;2.60;1.20;;;13.60;99.90;;;;;;5078137;28;20119;-79
2023/09/24 09:45:10;;;;;;;1.52;1.15;;;13.60;99.90;;;;;;5060797;28;20050;-77
2023/09/24 09:47:59;;;;;;;1.42;1.33;;;13.70;99.90;;;;;;5060283;28;20545;-78
2023/09/24 09:50:26;;;;;;;1.05;1.05;;;13.80;99.90;;;;;;5059912;28;20071;-77
2023/09/24 09:52:54;;;;;;;4.63;1.45;;;13.90;99.90;;;;;;5059828;28;20024;-77
2023/09/24 09:55:21;;;;;;;4.63;1.20;;;13.90;99.90;;;;;;5060171;28;20028;-77
2023/09/24 09:57:47;;;;;;;1.05;0.93;;;14.00;99.90;;;;;;5059939;28;20025;-78
2023/09/24 10:00:17;;;;;;;1.95;1.30;;;14.00;99.90;;;;;;5059276;28;20021;-77
2023/09/24 10:02:43;;;;;;;1.33;1.10;;;14.10;99.90;;;;;;5059635;28;20117;-78
2023/09/24 10:05:13;;;;;;;1.23;1.13;;;14.10;99.90;;;;;;5059212;28;20031;-79
2023/09/24 10:07:40;;;;;;;2.70;1.38;;;14.30;99.90;;;;;;5060098;28;20044;-79
2023/09/24 10:10:31;;;;;;;3.13;0.88;;;14.40;99.90;;;;;;5077469;28;20112;-77
2023/09/24 10:13:04;;;;;;;3.65;1.08;;;14.50;99.90;;;;;;5052605;28;20029;-77
2023/09/24 10:15:30;;;;;;;3.08;1.67;;;14.50;99.90;;;;;;5060036;28;20365;-79
2023/09/24 10:18:11;;;;;;;3.88;1.90;;;14.60;99.90;;;;;;5059377;28;20388;-77
2023/09/24 10:21:00;;;;;;;2.10;0.98;;;14.70;99.90;;;;;;5078855;28;20017;-77
2023/09/24 10:23:28;;;;;;;375.98;219.57;;;14.70;99.90;;;;;;5051029;28;20028;-78
2023/09/24 10:25:56;;;;;;;6.57;3.80;;;14.80;99.90;;;;;;5060468;28;20033;-77
2023/09/24 10:28:42;;;;;;;47.13;24.13;;;14.90;99.90;;;;;;5059995;28;20017;-79
2023/09/24 10:31:10;;;;;;;11.88;3.15;;;15.00;99.90;;;;;;5078095;28;20119;-78
2023/09/24 10:34:00;;;;;;;2.50;1.10;;;15.20;99.90;;;;;;5059614;28;20082;-79
2023/09/24 10:36:30;;;;;;;5.00;1.05;;;15.20;99.90;;;;;;5049643;28;20035;-79
2023/09/24 10:39:13;;;;;;;1.60;1.50;;;15.20;99.90;;;;;;5062415;28;20028;-78
2023/09/24 10:42:10;;;;;;;3.85;0.98;;;15.40;99.90;;;;;;5060996;28;20024;-77
2023/09/24 10:44:37;;;;;;;1.80;1.33;;;15.60;99.90;;;;;;5078633;28;20017;-79
2023/09/24 10:47:25;;;;;;;1.20;1.10;;;15.60;99.90;;;;;;5059362;28;20055;-78
2023/09/24 10:50:01;;;;;;;1.70;1.60;;;15.50;99.90;;;;;;5076170;28;20036;-78
2023/09/24 10:52:26;;;;;;;4.82;1.50;;;15.50;99.90;;;;;;5076109;28;20032;-79
2023/09/24 10:54:52;;;;;;;1.33;1.00;;;15.60;99.90;;;;;;5076291;28;20020;-78
2023/09/24 10:57:28;;;;;;;2.03;1.20;;;15.50;99.90;;;;;;5058342;28;20090;-77
2023/09/24 10:59:53;;;;;;;2.58;1.70;;;15.40;99.90;;;;;;5076607;28;20025;-78
2023/09/24 11:02:19;;;;;;;1.20;0.88;;;15.50;99.90;;;;;;5077182;28;20495;-77
2023/09/24 11:04:45;;;;;;;4.13;1.00;;;15.60;99.90;;;;;;5058784;28;20035;-78
2023/09/24 11:07:12;;;;;;;2.70;0.95;;;15.80;99.90;;;;;;5076099;28;20044;-76
2023/09/24 11:09:37;;;;;;;2.80;1.23;;;15.80;99.90;;;;;;5076117;28;20044;-78
2023/09/24 11:12:09;;;;;;;1.27;1.15;;;15.80;99.90;;;;;;5057993;28;20017;-78
2023/09/24 11:14:35;;;;;;;1.15;0.95;;;16.00;99.90;;;;;;5076182;28;20052;-79
2023/09/24 11:17:01;;;;;;;1.70;1.02;;;16.20;99.90;;;;;;5077825;28;20031;-78
2023/09/24 11:19:47;;;;;;;1.42;1.05;;;16.40;99.90;;;;;;5075577;28;20027;-78
2023/09/24 11:22:21;;;;;;;2.80;1.27;;;16.50;99.90;;;;;;5057843;28;20476;-78
2023/09/24 11:24:50;;;;;;;1.60;1.00;;;16.60;99.90;;;;;;5057695;28;20451;-78
2023/09/24 11:27:18;;;;;;;1.77;1.00;;;16.80;99.90;;;;;;5057486;28;20116;-78
2023/09/24 11:29:57;;;;;;;1.05;0.80;;;16.60;99.90;;;;;;5075553;28;20032;-78
2023/09/24 11:32:25;;;;;;;0.80;0.80;;;16.60;99.90;;;;;;5057650;28;20067;-76
2023/09/24 11:35:04;;;;;;;2.47;1.30;;;16.70;99.90;;;;;;5057346;28;20464;-77
2023/09/24 11:37:43;;;;;;;1.60;1.20;;;16.80;99.90;;;;;;5057607;28;20024;-78
2023/09/24 11:40:33;;;;;;;0.85;0.85;;;16.90;99.90;;;;;;5075464;28;20027;-79
2023/09/24 11:43:02;;;;;;;1.70;1.08;;;16.90;99.90;;;;;;5057782;28;20070;-79
2023/09/24 11:45:50;;;;;;;0.80;0.80;;;16.80;99.90;;;;;;5058292;28;20046;-79
2023/09/24 11:48:21;;;;;;;0.95;0.95;;;17.00;99.90;;;;;;5057546;28;20476;-78
2023/09/24 11:50:57;;;;;;;2.03;1.30;;;16.90;99.90;;;;;;5074988;28;20028;-77
2023/09/24 11:53:25;;;;;;;4.53;1.25;;;17.00;99.90;;;;;;5075424;28;20036;-78
2023/09/24 11:55:57;;;;;;;2.38;1.38;;;17.40;99.90;;;;;;5056940;28;20028;-78
2023/09/24 11:58:26;;;;;;;2.20;1.13;;;17.70;99.90;;;;;;5056281;28;20436;-77
2023/09/24 12:00:53;;;;;;;0.98;0.75;;;18.30;99.90;;;;;;5056532;28;20542;-78
2023/09/24 12:03:20;;;;;;;0.73;0.52;;;19.00;99.90;;;;;;5055368;28;20024;-79
2023/09/24 12:05:46;;;;;;;0.98;0.75;;;19.90;99.90;;;;;;5055924;28;20055;-81
2023/09/24 12:08:12;;;;;;;3.83;0.93;;;21.60;97.00;;;;;;5056258;28;20017;-78
2023/09/24 12:10:40;;;;;;;0.60;0.60;;;22.50;92.20;;;;;;5073915;28;20072;-79
2023/09/24 12:13:09;;;;;;;1.90;0.68;;;23.50;89.30;;;;;;5073923;28;20035;-82
2023/09/24 12:15:35;;;;;;;0.82;0.80;;;23.20;85.60;;;;;;5077822;28;20028;-79
2023/09/24 12:18:07;;;;;;;1.50;0.98;;;21.50;86.00;;;;;;5074014;28;20020;-77
2023/09/24 12:20:34;;;;;;;0.80;0.65;;;22.40;85.90;;;;;;5073939;28;20104;-78
2023/09/24 12:23:01;;;;;;;1.05;0.80;;;23.70;82.40;;;;;;5073629;28;20467;-78
2023/09/24 12:25:28;;;;;;;1.60;0.80;;;24.40;80.40;;;;;;5073914;28;20028;-78
2023/09/24 12:27:54;;;;;;;0.90;0.50;;;24.70;76.40;;;;;;5073596;28;20427;-77
2023/09/24 12:30:19;;;;;;;0.88;0.57;;;24.40;74.50;;;;;;5060223;28;20143;-77
2023/09/24 12:32:45;;;;;;;4.40;1.27;;;24.80;74.50;;;;;;5061038;28;20017;-80
2023/09/24 12:35:11;;;;;;;1.00;0.85;;;25.10;74.00;;;;;;5060601;28;20020;-84
2023/09/24 12:37:38;;;;;;;2.05;0.60;;;24.60;72.30;;;;;;5067895;28;20013;-86
2023/09/24 12:40:44;;;;;;;2.28;1.02;;;23.40;73.50;;;;;;5081275;28;20019;-80
2023/09/24 12:43:29;;;;;;;0.47;0.47;;;22.50;76.90;;;;;;5066296;28;20033;-83
2023/09/24 12:45:55;;;;;;;1.88;1.00;;;23.30;77.30;;;;;;5089781;28;20043;-89
2023/09/24 12:48:27;;;;;;;2.97;1.25;;;24.80;72.90;;;;;;5068103;28;20044;-81
2023/09/24 12:50:53;;;;;;;2.08;0.50;;;24.90;72.60;;;;;;5090889;28;20127;-83
2023/09/24 12:53:19;;;;;;;3.45;1.23;;;25.10;69.50;;;;;;5069353;28;20024;-88
2023/09/24 12:55:45;;;;;;;4.13;0.70;;;26.50;71.20;;;;;;5055989;28;20477;-82
2023/09/24 12:58:11;;;;;;;0.70;0.70;;;28.20;66.80;;;;;;5081446;28;20017;-81
2023/09/24 13:00:37;;;;;;;13.20;6.28;;;29.20;64.10;;;;;;5078528;28;20020;-81
2023/09/24 13:03:02;;;;;;;0.60;0.60;;;28.80;63.40;;;;;;5057247;28;20122;-73
2023/09/24 13:05:28;;;;;;;0.95;0.40;;;29.00;59.50;;;;;;5083326;28;20335;-76
2023/09/24 13:07:54;;;;;;;1.65;0.40;;;29.30;61.10;;;;;;5082673;28;20032;-75
2023/09/24 13:10:20;;;;;;;0.82;0.52;;;30.10;59.70;;;;;;5082253;28;20028;-75